AirNav   Free SoundLink Mini II speaker
 
 832 users online  

12ID Flying B Ranch Landing Strip Airport
Salmon, Idaho, USA

GOING TO SALMON?


FAA INFORMATION EFFECTIVE 26 MARCH 2020

Location

FAA Identifier: 12ID
Lat/Long: 44-58-04.6920N 114-43-58.3270W
44-58.078200N 114-43.972117W
44.9679700,-114.7328686
(estimated)
Elevation: 3647 ft. / 1111.6 m (surveyed)
Variation: 17E (1985)
From city: 39 miles SW of SALMON, ID
Time zone: UTC -6 (UTC -7 during Standard Time)
Zip code: 83469

Airport Operations

Airport use: Private use. Permission required prior to landing
Activation date: 10/1960
Control tower: no
ARTCC: SALT LAKE CITY CENTER
FSS: BOISE FLIGHT SERVICE STATION
Attendance: UNATNDD
CALL 122.9 ON INTENTIONS
Wind indicator: yes
Segmented circle: no
Landing fee: yes

Airport Communications

  • MULTICOM 122.9 AVBL

Nearby radio navigation aids

VOR radial/distance  VOR name  Freq  Var
LKTr250/27.7SALMON VOR/DME113.5013E

Airport Services

Airframe service: NONE
Powerplant service: NONE

Runway Information

Runway N/S

Dimensions: 2000 x 100 ft. / 610 x 30 m
Surface: turf
RUNWAY N  RUNWAY S
Traffic pattern: leftleft
Obstructions: noneridge
RIDGE ACROSS APCH END OF RWY S.

Airport Ownership and Management from official FAA records

Ownership: Privately-owned
Owner: FLYING RESORT RANCHES INC
9 HAMNER DR
SALMON, ID 83467
Phone 208-756-6295
Manager: TAMMY OVERACKER
9 HAMNER DR
SALMON, ID 83467
Phone 208-756-6295

Additional Remarks

FOR CD CTC SALT LAKE ARTCC AT 801-320-2568.

Instrument Procedures

There are no published instrument procedures at 12ID.

Some nearby airports with instrument procedures:

KSMN - Lemhi County Airport (37 nm E)
KMYL - Mc Call Municipal Airport (58 nm W)
6S5 - Ravalli County Airport (81 nm N)
KGIC - Idaho County Airport (83 nm NW)
KSUN - Friedman Memorial Airport (90 nm S)
 
Loc | Ops | Rwys | IFR | FBO | Links
Com | Nav | Svcs | Stats | Notes
Area around 12ID (Flying B Ranch Landing Strip Airport)
 
Road maps at: MapQuest Bing Google
 
Aerial photo
WARNING: Photo may not be current or correct
Aerial photo of 12ID (Flying B Ranch Landing Strip Airport)
Photo taken 05-Jul-2008

Do you have a better or more recent aerial photo of Flying B Ranch Landing Strip Airport that you would like to share? If so, please send us your photo.

 
Sectional chart

 
Airport distance calculator
Flying to Flying B Ranch Landing Strip Airport? Find the distance to fly.

From to 12ID

Sunrise and sunset
Times for 03-Apr-2020
 Local
(UTC-6)
 Zulu
(UTC)
Morning civil twilight06:4512:45
Sunrise07:1513:15
Sunset20:0902:09
Evening civil twilight20:3902:39

Current date and time
Zulu (UTC)  03-Apr-2020 22:34:50
Local (UTC-6)  03-Apr-2020 16:34:50
 
METAR
KLLJ 
35nm SE 
032155Z AUTO 22010KT 10SM OVC095 05/M13 A2986 RMK AO2 SLP128 T00501128
KSMN 
38nm E 
032156Z AUTO 20012G20KT 10SM FEW060 SCT075 BKN100 06/M10 A2986 RMK AO2 SLP139 T00611100
KSNT 
49nm S 
032151Z AUTO VRB04KT 00/M15 A2987 RMK AO1 SLP143 T00001150
TAF
KSMN 
38nm E 
032120Z 0321/0418 19011G18KT P6SM VCSH BKN070 FM040200 30004KT P6SM SCT250
NOTAMs
Click for the latest NOTAMs
NOTAMs are issued by the DoD/FAA and will open in a separate window not controlled by AirNav.

 

 
 

Would you like to see your business listed on this page?

 If your business provides an interesting product or service to pilots, flight crews, aircraft, or users of the Flying B Ranch Landing Strip Airport, you should consider listing it here.  To start the listing process, click on the button below
 
Add a business
 

Other Pages about Flying B Ranch Landing Strip Airport

www.flyingresortranches.com
 
Update a link
 
Copyright © AirNav, LLC. All rights reserved. Privacy Policy  Contact